LHA871 LOWK-EDLW
Flight info
| Callsign | LHA871 |
|---|---|
| Flight time | 1h 13m |
| Altitude | 40000 |
| Route | INGID DCT LAMSI L604 RUDNO M736 AKOSI DCT PILAM T843 DEMAB T842 RUNER DCT ADEMI |
| Aircraft | B738/M-SDE1E2FGIJ1RWYZE3/S |
Departure
| Time | 2026-04-29 15:21 |
|---|---|
| Airport | Klagenfurt Airport (LOWK) |
Arrival
| Time | 2026-04-29 16:34 |
|---|---|
| Airport | Dortmund Airport (EDLW) |
| Time | Latitude | Longitude | Altitude | Speed | Heading |
|---|---|---|---|---|---|
| 2026-04-29 14:54 | 46.64852 | 14.32527 | 1463 ft | 0 kts | 75° |
| 2026-04-29 15:15 | 46.64852 | 14.32526 | 1463 ft | 1 kts | 75° |
| 2026-04-29 15:15 | 46.64847 | 14.32493 | 1458 ft | 4 kts | 89° |
| 2026-04-29 15:15 | 46.64852 | 14.32461 | 1463 ft | 4 kts | 147° |
| 2026-04-29 15:16 | 46.64859 | 14.32455 | 1463 ft | 0 kts | 165° |
| 2026-04-29 15:19 | 46.64803 | 14.32472 | 1463 ft | 16 kts | 172° |
| 2026-04-29 15:19 | 46.64710 | 14.32481 | 1463 ft | 13 kts | 180° |
| 2026-04-29 15:19 | 46.64626 | 14.32454 | 1459 ft | 12 kts | 198° |
| 2026-04-29 15:19 | 46.64539 | 14.32431 | 1459 ft | 12 kts | 157° |
| 2026-04-29 15:20 | 46.64504 | 14.32531 | 1459 ft | 12 kts | 106° |
| 2026-04-29 15:20 | 46.64422 | 14.32939 | 1463 ft | 79 kts | 107° |
| 2026-04-29 15:20 | 46.64199 | 14.34023 | 1457 ft | 142 kts | 107° |
| 2026-04-29 15:20 | 46.63895 | 14.35574 | 1847 ft | 164 kts | 105° |
| 2026-04-29 15:21 | 46.63603 | 14.37122 | 2805 ft | 156 kts | 105° |
| 2026-04-29 15:21 | 46.63286 | 14.38634 | 3459 ft | 162 kts | 105° |
| 2026-04-29 15:21 | 46.62935 | 14.40346 | 3771 ft | 191 kts | 105° |
| 2026-04-29 15:21 | 46.62537 | 14.42327 | 3998 ft | 216 kts | 106° |
| 2026-04-29 15:22 | 46.62098 | 14.44540 | 4233 ft | 240 kts | 104° |
| 2026-04-29 15:22 | 46.62073 | 14.47042 | 4605 ft | 258 kts | 72° |
| 2026-04-29 15:22 | 46.63022 | 14.49244 | 5451 ft | 262 kts | 42° |
| 2026-04-29 15:22 | 46.64614 | 14.50501 | 6437 ft | 266 kts | 15° |
| 2026-04-29 15:23 | 46.66468 | 14.50492 | 7407 ft | 271 kts | 345° |
| 2026-04-29 15:23 | 46.68109 | 14.49191 | 8486 ft | 270 kts | 323° |
| 2026-04-29 15:23 | 46.69498 | 14.47368 | 9390 ft | 275 kts | 317° |
| 2026-04-29 15:23 | 46.70863 | 14.45387 | 10228 ft | 279 kts | 316° |
| 2026-04-29 15:24 | 46.72280 | 14.43323 | 10578 ft | 301 kts | 316° |
| 2026-04-29 15:24 | 46.73834 | 14.41092 | 10817 ft | 325 kts | 316° |
| 2026-04-29 15:24 | 46.75481 | 14.38754 | 11420 ft | 334 kts | 317° |
| 2026-04-29 15:24 | 46.77166 | 14.36384 | 12256 ft | 337 kts | 317° |
| 2026-04-29 15:25 | 46.78866 | 14.34005 | 13128 ft | 340 kts | 317° |
| 2026-04-29 15:25 | 46.80582 | 14.31610 | 14018 ft | 343 kts | 316° |
| 2026-04-29 15:25 | 46.82313 | 14.29196 | 14792 ft | 347 kts | 316° |
| 2026-04-29 15:25 | 46.84069 | 14.26767 | 15660 ft | 349 kts | 316° |
| 2026-04-29 15:26 | 46.85853 | 14.24355 | 16561 ft | 350 kts | 316° |
| 2026-04-29 15:26 | 46.87653 | 14.21939 | 17431 ft | 353 kts | 316° |
| 2026-04-29 15:26 | 46.89466 | 14.19506 | 18280 ft | 355 kts | 316° |
| 2026-04-29 15:26 | 46.91293 | 14.17050 | 19029 ft | 359 kts | 315° |
| 2026-04-29 15:27 | 46.93134 | 14.14564 | 19771 ft | 361 kts | 315° |
| 2026-04-29 15:27 | 46.94980 | 14.12072 | 20507 ft | 363 kts | 315° |
| 2026-04-29 15:27 | 46.96843 | 14.09552 | 21207 ft | 366 kts | 315° |
| 2026-04-29 15:27 | 46.98724 | 14.07002 | 21862 ft | 370 kts | 314° |
| 2026-04-29 15:28 | 47.00620 | 14.04430 | 22566 ft | 373 kts | 314° |
| 2026-04-29 15:28 | 47.01881 | 14.02719 | 23035 ft | 374 kts | 314° |
| 2026-04-29 15:28 | 47.04446 | 13.99233 | 23911 ft | 377 kts | 314° |
| 2026-04-29 15:28 | 47.06375 | 13.96608 | 24434 ft | 380 kts | 314° |
| 2026-04-29 15:29 | 47.08320 | 13.93957 | 24969 ft | 382 kts | 314° |
| 2026-04-29 15:29 | 47.12217 | 13.88638 | 26013 ft | 384 kts | 313° |
| 2026-04-29 15:30 | 47.16141 | 13.83271 | 27074 ft | 387 kts | 313° |
| 2026-04-29 15:30 | 47.18116 | 13.80567 | 27616 ft | 389 kts | 313° |
| 2026-04-29 15:30 | 47.20097 | 13.77851 | 28074 ft | 391 kts | 313° |
| 2026-04-29 15:30 | 47.22094 | 13.75111 | 28536 ft | 394 kts | 313° |
| 2026-04-29 15:31 | 47.24105 | 13.72349 | 28937 ft | 397 kts | 314° |
| 2026-04-29 15:31 | 47.26373 | 13.69968 | 29299 ft | 409 kts | 328° |
| 2026-04-29 15:31 | 47.29058 | 13.68464 | 29736 ft | 420 kts | 341° |
| 2026-04-29 15:31 | 47.31988 | 13.67914 | 30144 ft | 429 kts | 349° |
| 2026-04-29 15:32 | 47.34981 | 13.67689 | 30516 ft | 431 kts | 351° |
| 2026-04-29 15:32 | 47.37996 | 13.67523 | 30752 ft | 436 kts | 351° |
| 2026-04-29 15:32 | 47.41041 | 13.67364 | 31069 ft | 438 kts | 351° |
| 2026-04-29 15:32 | 47.44089 | 13.67195 | 31409 ft | 439 kts | 351° |
| 2026-04-29 15:33 | 47.47133 | 13.67012 | 31785 ft | 437 kts | 351° |
| 2026-04-29 15:33 | 47.50167 | 13.66817 | 32221 ft | 436 kts | 351° |
| 2026-04-29 15:33 | 47.53193 | 13.66607 | 32646 ft | 434 kts | 351° |
| 2026-04-29 15:33 | 47.56211 | 13.66390 | 33063 ft | 434 kts | 351° |
| 2026-04-29 15:34 | 47.59225 | 13.66170 | 33519 ft | 432 kts | 351° |
| 2026-04-29 15:34 | 47.62185 | 13.65954 | 34023 ft | 430 kts | 351° |
| 2026-04-29 15:34 | 47.65208 | 13.65732 | 34396 ft | 430 kts | 351° |
| 2026-04-29 15:34 | 47.68163 | 13.65516 | 34686 ft | 431 kts | 351° |
| 2026-04-29 15:35 | 47.71157 | 13.65297 | 35016 ft | 431 kts | 352° |
| 2026-04-29 15:35 | 47.74148 | 13.65077 | 35392 ft | 429 kts | 352° |
| 2026-04-29 15:35 | 47.77127 | 13.64859 | 35727 ft | 428 kts | 352° |
| 2026-04-29 15:35 | 47.80111 | 13.64640 | 35931 ft | 431 kts | 352° |
| 2026-04-29 15:36 | 47.83110 | 13.64419 | 36184 ft | 431 kts | 352° |
| 2026-04-29 15:36 | 47.86101 | 13.64200 | 36527 ft | 430 kts | 353° |
| 2026-04-29 15:36 | 47.89090 | 13.63981 | 36813 ft | 430 kts | 353° |
| 2026-04-29 15:36 | 47.92076 | 13.63762 | 37089 ft | 430 kts | 353° |
| 2026-04-29 15:37 | 47.95067 | 13.63543 | 37396 ft | 430 kts | 353° |
| 2026-04-29 15:37 | 47.98055 | 13.63322 | 37695 ft | 430 kts | 353° |
| 2026-04-29 15:37 | 48.01037 | 13.63103 | 37978 ft | 430 kts | 353° |
| 2026-04-29 15:37 | 48.04022 | 13.62884 | 38249 ft | 429 kts | 353° |
| 2026-04-29 15:38 | 48.07008 | 13.62663 | 38532 ft | 429 kts | 353° |
| 2026-04-29 15:38 | 48.09987 | 13.62442 | 38806 ft | 428 kts | 354° |
| 2026-04-29 15:38 | 48.12963 | 13.62221 | 39014 ft | 429 kts | 354° |
| 2026-04-29 15:38 | 48.15943 | 13.61999 | 39191 ft | 429 kts | 354° |
| 2026-04-29 15:39 | 48.18932 | 13.61777 | 39369 ft | 430 kts | 354° |
| 2026-04-29 15:39 | 48.21914 | 13.61555 | 39580 ft | 429 kts | 354° |
| 2026-04-29 15:39 | 48.24900 | 13.61334 | 39778 ft | 429 kts | 354° |
| 2026-04-29 15:39 | 48.27880 | 13.61113 | 39957 ft | 430 kts | 354° |
| 2026-04-29 15:40 | 48.30872 | 13.60889 | 40135 ft | 430 kts | 354° |
| 2026-04-29 15:40 | 48.36871 | 13.60440 | 40211 ft | 433 kts | 354° |
| 2026-04-29 15:41 | 48.42871 | 13.59992 | 40214 ft | 430 kts | 354° |
| 2026-04-29 15:41 | 48.48819 | 13.59546 | 40216 ft | 426 kts | 354° |
| 2026-04-29 15:42 | 48.54729 | 13.59099 | 40231 ft | 424 kts | 354° |
| 2026-04-29 15:42 | 48.60611 | 13.58650 | 40224 ft | 423 kts | 353° |
| 2026-04-29 15:42 | 48.63480 | 13.57879 | 40219 ft | 418 kts | 339° |
| 2026-04-29 15:43 | 48.66137 | 13.56135 | 40230 ft | 417 kts | 329° |
| 2026-04-29 15:43 | 48.68534 | 13.53666 | 40225 ft | 419 kts | 317° |
| 2026-04-29 15:43 | 48.70632 | 13.50580 | 40242 ft | 423 kts | 315° |
| 2026-04-29 15:44 | 48.74793 | 13.44187 | 40246 ft | 428 kts | 315° |
| 2026-04-29 15:44 | 48.79012 | 13.37764 | 40241 ft | 432 kts | 315° |
| 2026-04-29 15:45 | 48.83256 | 13.31365 | 40221 ft | 433 kts | 315° |
| 2026-04-29 15:45 | 48.87522 | 13.24928 | 40222 ft | 432 kts | 315° |
| 2026-04-29 15:46 | 48.91767 | 13.18495 | 40228 ft | 430 kts | 315° |
| 2026-04-29 15:46 | 48.95995 | 13.12062 | 40246 ft | 429 kts | 315° |
| 2026-04-29 15:47 | 49.00206 | 13.05640 | 40242 ft | 428 kts | 315° |
| 2026-04-29 15:47 | 49.04402 | 12.99224 | 40249 ft | 427 kts | 316° |
| 2026-04-29 15:48 | 49.08586 | 12.92813 | 40247 ft | 426 kts | 316° |
| 2026-04-29 15:48 | 49.12756 | 12.86407 | 40250 ft | 425 kts | 316° |
| 2026-04-29 15:49 | 49.16915 | 12.80004 | 40259 ft | 424 kts | 315° |
| 2026-04-29 15:49 | 49.21066 | 12.73582 | 40264 ft | 424 kts | 315° |
| 2026-04-29 15:50 | 49.25210 | 12.67159 | 40262 ft | 424 kts | 315° |
| 2026-04-29 15:50 | 49.29352 | 12.60722 | 40273 ft | 425 kts | 316° |
| 2026-04-29 15:51 | 49.33502 | 12.54277 | 40257 ft | 425 kts | 317° |
| 2026-04-29 15:51 | 49.38038 | 12.48494 | 40265 ft | 424 kts | 323° |
| 2026-04-29 15:52 | 49.42709 | 12.42963 | 40276 ft | 424 kts | 323° |
| 2026-04-29 15:52 | 49.47368 | 12.37364 | 40272 ft | 425 kts | 323° |
| 2026-04-29 15:53 | 49.51974 | 12.31751 | 40282 ft | 425 kts | 322° |
| 2026-04-29 15:53 | 49.56610 | 12.26073 | 40279 ft | 426 kts | 322° |
| 2026-04-29 15:54 | 49.61251 | 12.20371 | 40267 ft | 427 kts | 322° |
| 2026-04-29 15:54 | 49.65890 | 12.14661 | 40258 ft | 427 kts | 322° |
| 2026-04-29 15:55 | 49.70503 | 12.08902 | 40257 ft | 427 kts | 319° |
| 2026-04-29 15:55 | 49.74465 | 12.02046 | 40258 ft | 428 kts | 311° |
| 2026-04-29 15:56 | 49.78251 | 11.94930 | 40257 ft | 428 kts | 311° |
| 2026-04-29 15:56 | 49.82047 | 11.87818 | 40258 ft | 429 kts | 311° |
| 2026-04-29 15:57 | 49.85860 | 11.80706 | 40259 ft | 429 kts | 311° |
| 2026-04-29 15:57 | 49.89677 | 11.73589 | 40270 ft | 429 kts | 311° |
| 2026-04-29 15:58 | 49.93496 | 11.66453 | 40291 ft | 430 kts | 311° |
| 2026-04-29 15:58 | 49.96797 | 11.60266 | 40300 ft | 431 kts | 311° |
| 2026-04-29 15:59 | 50.00619 | 11.53079 | 40300 ft | 432 kts | 311° |
| 2026-04-29 15:59 | 50.04455 | 11.45859 | 40281 ft | 433 kts | 312° |
| 2026-04-29 16:00 | 50.08293 | 11.38611 | 40311 ft | 434 kts | 311° |
| 2026-04-29 16:00 | 50.11480 | 11.32569 | 40315 ft | 435 kts | 312° |
| 2026-04-29 16:01 | 50.15321 | 11.25264 | 40322 ft | 436 kts | 312° |
| 2026-04-29 16:01 | 50.19160 | 11.17953 | 40324 ft | 436 kts | 312° |
| 2026-04-29 16:02 | 50.23629 | 11.09419 | 40322 ft | 437 kts | 312° |
| 2026-04-29 16:02 | 50.26848 | 11.03254 | 40321 ft | 437 kts | 312° |
| 2026-04-29 16:03 | 50.30652 | 10.95937 | 40319 ft | 436 kts | 311° |
| 2026-04-29 16:03 | 50.34467 | 10.88584 | 40325 ft | 435 kts | 311° |
| 2026-04-29 16:04 | 50.38277 | 10.81232 | 40342 ft | 434 kts | 312° |
| 2026-04-29 16:04 | 50.41989 | 10.73774 | 40320 ft | 436 kts | 305° |
| 2026-04-29 16:05 | 50.44467 | 10.65051 | 40313 ft | 443 kts | 288° |
| 2026-04-29 16:05 | 50.45771 | 10.55593 | 40329 ft | 444 kts | 285° |
| 2026-04-29 16:06 | 50.47087 | 10.46128 | 40326 ft | 444 kts | 286° |
| 2026-04-29 16:06 | 50.48433 | 10.36651 | 40331 ft | 445 kts | 286° |
| 2026-04-29 16:06 | 50.49099 | 10.31891 | 40119 ft | 450 kts | 286° |
| 2026-04-29 16:07 | 50.49771 | 10.27066 | 39633 ft | 452 kts | 286° |
| 2026-04-29 16:07 | 50.50437 | 10.22250 | 39046 ft | 451 kts | 286° |
| 2026-04-29 16:07 | 50.51100 | 10.17444 | 38367 ft | 450 kts | 286° |
| 2026-04-29 16:07 | 50.51764 | 10.12640 | 37719 ft | 449 kts | 287° |
| 2026-04-29 16:08 | 50.52423 | 10.07856 | 37104 ft | 448 kts | 287° |
| 2026-04-29 16:08 | 50.53083 | 10.03070 | 36478 ft | 448 kts | 288° |
| 2026-04-29 16:08 | 50.54170 | 9.98569 | 35820 ft | 435 kts | 308° |
| 2026-04-29 16:08 | 50.56022 | 9.94915 | 35190 ft | 424 kts | 322° |
| 2026-04-29 16:09 | 50.58348 | 9.92168 | 34483 ft | 415 kts | 338° |
| 2026-04-29 16:09 | 50.60908 | 9.90147 | 33922 ft | 409 kts | 341° |
| 2026-04-29 16:09 | 50.63467 | 9.88241 | 33367 ft | 405 kts | 341° |
| 2026-04-29 16:09 | 50.66004 | 9.86362 | 32902 ft | 401 kts | 341° |
| 2026-04-29 16:10 | 50.68513 | 9.84486 | 32401 ft | 396 kts | 341° |
| 2026-04-29 16:10 | 50.70980 | 9.82617 | 31920 ft | 391 kts | 341° |
| 2026-04-29 16:10 | 50.73419 | 9.80772 | 31467 ft | 388 kts | 342° |
| 2026-04-29 16:10 | 50.75804 | 9.78935 | 31030 ft | 385 kts | 342° |
| 2026-04-29 16:11 | 50.78223 | 9.77067 | 30578 ft | 393 kts | 342° |
| 2026-04-29 16:11 | 50.80721 | 9.75140 | 30031 ft | 404 kts | 342° |
| 2026-04-29 16:11 | 50.83224 | 9.73197 | 29480 ft | 398 kts | 341° |
| 2026-04-29 16:11 | 50.85582 | 9.70850 | 28966 ft | 407 kts | 327° |
| 2026-04-29 16:12 | 50.87555 | 9.67593 | 28492 ft | 414 kts | 315° |
| 2026-04-29 16:12 | 50.89048 | 9.63656 | 28009 ft | 423 kts | 301° |
| 2026-04-29 16:12 | 50.90159 | 9.59352 | 27534 ft | 421 kts | 298° |
| 2026-04-29 16:12 | 50.91225 | 9.55051 | 27038 ft | 418 kts | 298° |
| 2026-04-29 16:13 | 50.92313 | 9.50799 | 26554 ft | 415 kts | 299° |
| 2026-04-29 16:13 | 50.93414 | 9.46594 | 26084 ft | 410 kts | 299° |
| 2026-04-29 16:13 | 50.94507 | 9.42436 | 25594 ft | 407 kts | 299° |
| 2026-04-29 16:13 | 50.95583 | 9.38311 | 25145 ft | 404 kts | 298° |
| 2026-04-29 16:14 | 50.96652 | 9.34203 | 24685 ft | 402 kts | 298° |
| 2026-04-29 16:14 | 50.97713 | 9.30115 | 24232 ft | 399 kts | 298° |
| 2026-04-29 16:14 | 50.98763 | 9.26059 | 23750 ft | 396 kts | 298° |
| 2026-04-29 16:14 | 50.99804 | 9.22036 | 23222 ft | 393 kts | 298° |
| 2026-04-29 16:15 | 51.00834 | 9.18048 | 22746 ft | 387 kts | 298° |
| 2026-04-29 16:15 | 51.01849 | 9.14125 | 22290 ft | 383 kts | 298° |
| 2026-04-29 16:15 | 51.02853 | 9.10229 | 21851 ft | 378 kts | 297° |
| 2026-04-29 16:15 | 51.03841 | 9.06379 | 21388 ft | 375 kts | 297° |
| 2026-04-29 16:16 | 51.04823 | 9.02551 | 20938 ft | 372 kts | 297° |
| 2026-04-29 16:16 | 51.05798 | 8.98748 | 20489 ft | 370 kts | 297° |
| 2026-04-29 16:16 | 51.06762 | 8.94985 | 20106 ft | 365 kts | 297° |
| 2026-04-29 16:16 | 51.07714 | 8.91283 | 19866 ft | 359 kts | 297° |
| 2026-04-29 16:17 | 51.08655 | 8.87633 | 19622 ft | 357 kts | 297° |
| 2026-04-29 16:17 | 51.09603 | 8.83953 | 19379 ft | 362 kts | 297° |
| 2026-04-29 16:17 | 51.10558 | 8.80230 | 19159 ft | 363 kts | 297° |
| 2026-04-29 16:17 | 51.11549 | 8.76620 | 18863 ft | 358 kts | 301° |
| 2026-04-29 16:18 | 51.12743 | 8.73136 | 18469 ft | 351 kts | 304° |
| 2026-04-29 16:18 | 51.13956 | 8.69834 | 17954 ft | 349 kts | 305° |
| 2026-04-29 16:18 | 51.15185 | 8.66500 | 17446 ft | 348 kts | 305° |
| 2026-04-29 16:18 | 51.16393 | 8.63172 | 16950 ft | 346 kts | 304° |
| 2026-04-29 16:19 | 51.17582 | 8.59842 | 16476 ft | 345 kts | 304° |
| 2026-04-29 16:19 | 51.18757 | 8.56517 | 16007 ft | 343 kts | 303° |
| 2026-04-29 16:19 | 51.19932 | 8.53215 | 15575 ft | 341 kts | 305° |
| 2026-04-29 16:19 | 51.21310 | 8.50188 | 15096 ft | 335 kts | 314° |
| 2026-04-29 16:20 | 51.22848 | 8.47420 | 14668 ft | 332 kts | 316° |
| 2026-04-29 16:20 | 51.24393 | 8.44677 | 14211 ft | 332 kts | 316° |
| 2026-04-29 16:20 | 51.25923 | 8.41901 | 13625 ft | 334 kts | 315° |
| 2026-04-29 16:20 | 51.27445 | 8.39094 | 13037 ft | 335 kts | 314° |
| 2026-04-29 16:21 | 51.28860 | 8.36123 | 12460 ft | 337 kts | 309° |
| 2026-04-29 16:21 | 51.30157 | 8.33023 | 11898 ft | 332 kts | 307° |
| 2026-04-29 16:21 | 51.31401 | 8.29946 | 11436 ft | 328 kts | 307° |
| 2026-04-29 16:21 | 51.32633 | 8.26903 | 11009 ft | 325 kts | 307° |
| 2026-04-29 16:22 | 51.33857 | 8.23901 | 10750 ft | 317 kts | 307° |
| 2026-04-29 16:22 | 51.35045 | 8.21006 | 10612 ft | 306 kts | 307° |
| 2026-04-29 16:22 | 51.36198 | 8.18208 | 10465 ft | 296 kts | 307° |
| 2026-04-29 16:22 | 51.37317 | 8.15497 | 10340 ft | 287 kts | 308° |
| 2026-04-29 16:23 | 51.38411 | 8.12855 | 10033 ft | 285 kts | 307° |
| 2026-04-29 16:23 | 51.39502 | 8.10226 | 9720 ft | 282 kts | 307° |
| 2026-04-29 16:23 | 51.40583 | 8.07617 | 9405 ft | 280 kts | 307° |
| 2026-04-29 16:23 | 51.41655 | 8.05027 | 9105 ft | 277 kts | 307° |
| 2026-04-29 16:24 | 51.42703 | 8.02486 | 8812 ft | 277 kts | 307° |
| 2026-04-29 16:24 | 51.43764 | 7.99917 | 8508 ft | 276 kts | 307° |
| 2026-04-29 16:24 | 51.44821 | 7.97354 | 8214 ft | 275 kts | 307° |
| 2026-04-29 16:24 | 51.45872 | 7.94805 | 7919 ft | 273 kts | 307° |
| 2026-04-29 16:25 | 51.46919 | 7.92266 | 7626 ft | 273 kts | 307° |
| 2026-04-29 16:25 | 51.47967 | 7.89714 | 7323 ft | 274 kts | 306° |
| 2026-04-29 16:25 | 51.48746 | 7.86925 | 7011 ft | 276 kts | 287° |
| 2026-04-29 16:25 | 51.49205 | 7.83942 | 6719 ft | 276 kts | 285° |
| 2026-04-29 16:26 | 51.49667 | 7.80895 | 6165 ft | 285 kts | 285° |
| 2026-04-29 16:26 | 51.50148 | 7.77806 | 5795 ft | 285 kts | 285° |
| 2026-04-29 16:26 | 51.50640 | 7.74738 | 5469 ft | 283 kts | 286° |
| 2026-04-29 16:26 | 51.51136 | 7.71685 | 5158 ft | 282 kts | 286° |
| 2026-04-29 16:27 | 51.51632 | 7.68641 | 4855 ft | 282 kts | 286° |
| 2026-04-29 16:27 | 51.52077 | 7.65592 | 4540 ft | 281 kts | 277° |
| 2026-04-29 16:27 | 51.51761 | 7.62556 | 4215 ft | 275 kts | 240° |
| 2026-04-29 16:27 | 51.50605 | 7.60229 | 3955 ft | 262 kts | 219° |
| 2026-04-29 16:28 | 51.49246 | 7.58309 | 3689 ft | 261 kts | 217° |
| 2026-04-29 16:28 | 51.47871 | 7.56428 | 3497 ft | 257 kts | 217° |
| 2026-04-29 16:28 | 51.46539 | 7.54584 | 3373 ft | 250 kts | 217° |
| 2026-04-29 16:28 | 51.45243 | 7.52770 | 3265 ft | 244 kts | 217° |
| 2026-04-29 16:29 | 51.43979 | 7.50996 | 3154 ft | 239 kts | 218° |
| 2026-04-29 16:29 | 51.42746 | 7.49260 | 3027 ft | 234 kts | 217° |
| 2026-04-29 16:29 | 51.41531 | 7.47540 | 2983 ft | 232 kts | 219° |
| 2026-04-29 16:29 | 51.40726 | 7.45354 | 2901 ft | 229 kts | 261° |
| 2026-04-29 16:30 | 51.40952 | 7.42964 | 2823 ft | 211 kts | 303° |
| 2026-04-29 16:30 | 51.41899 | 7.41354 | 2771 ft | 195 kts | 338° |
| 2026-04-29 16:30 | 51.43152 | 7.40824 | 2714 ft | 182 kts | 9° |
| 2026-04-29 16:30 | 51.44313 | 7.41349 | 2608 ft | 171 kts | 39° |
| 2026-04-29 16:31 | 51.45100 | 7.42734 | 2558 ft | 171 kts | 59° |
| 2026-04-29 16:31 | 51.45789 | 7.44297 | 2509 ft | 170 kts | 58° |
| 2026-04-29 16:31 | 51.46433 | 7.45854 | 2472 ft | 165 kts | 61° |
| 2026-04-29 16:31 | 51.47006 | 7.47435 | 2297 ft | 164 kts | 62° |
| 2026-04-29 16:32 | 51.47565 | 7.49035 | 2105 ft | 165 kts | 63° |
| 2026-04-29 16:32 | 51.48127 | 7.50642 | 1869 ft | 163 kts | 62° |
| 2026-04-29 16:32 | 51.48662 | 7.52167 | 1657 ft | 150 kts | 63° |
| 2026-04-29 16:32 | 51.49158 | 7.53593 | 1448 ft | 144 kts | 63° |
| 2026-04-29 16:33 | 51.50080 | 7.56224 | 1062 ft | 123 kts | 60° |
| 2026-04-29 16:33 | 51.50476 | 7.57351 | 885 ft | 108 kts | 64° |
| 2026-04-29 16:33 | 51.50844 | 7.58406 | 796 ft | 115 kts | 62° |
| 2026-04-29 16:34 | 51.51226 | 7.59495 | 624 ft | 109 kts | 60° |
| 2026-04-29 16:34 | 51.51581 | 7.60507 | 468 ft | 98 kts | 60° |
| 2026-04-29 16:34 | 51.51876 | 7.61346 | 414 ft | 65 kts | 60° |
| 2026-04-29 16:34 | 51.51995 | 7.61679 | 413 ft | 28 kts | 60° |
| 2026-04-29 16:35 | 51.52104 | 7.61987 | 412 ft | 35 kts | 60° |
| 2026-04-29 16:35 | 51.52187 | 7.62228 | 418 ft | 15 kts | 63° |
| 2026-04-29 16:35 | 51.52155 | 7.62340 | 412 ft | 12 kts | 148° |
| 2026-04-29 16:35 | 51.52088 | 7.62397 | 415 ft | 9 kts | 168° |
| 2026-04-29 16:36 | 51.52039 | 7.62348 | 407 ft | 0 kts | 237° |
| 2026-04-29 16:37 | 51.52007 | 7.62261 | 411 ft | 15 kts | 241° |
| 2026-04-29 16:37 | 51.51953 | 7.62108 | 417 ft | 16 kts | 239° |
| 2026-04-29 16:37 | 51.51918 | 7.62007 | 416 ft | 16 kts | 243° |
| 2026-04-29 16:38 | 51.51850 | 7.61811 | 418 ft | 15 kts | 234° |
| 2026-04-29 16:38 | 51.51806 | 7.61693 | 414 ft | 10 kts | 240° |
| 2026-04-29 16:38 | 51.51771 | 7.61593 | 419 ft | 10 kts | 240° |
| 2026-04-29 16:38 | 51.51737 | 7.61496 | 426 ft | 10 kts | 240° |
| 2026-04-29 16:39 | 51.51704 | 7.61401 | 425 ft | 10 kts | 240° |
| 2026-04-29 16:39 | 51.51671 | 7.61308 | 429 ft | 9 kts | 240° |
| 2026-04-29 16:39 | 51.51640 | 7.61218 | 425 ft | 9 kts | 240° |
| 2026-04-29 16:39 | 51.51609 | 7.61127 | 424 ft | 9 kts | 242° |
| 2026-04-29 16:40 | 51.51565 | 7.61055 | 433 ft | 9 kts | 188° |
| 2026-04-29 16:40 | 51.51511 | 7.61040 | 420 ft | 5 kts | 220° |
| 2026-04-29 16:40 | 51.51480 | 7.61018 | 424 ft | 5 kts | 175° |
| 2026-04-29 16:40 | 51.51453 | 7.61040 | 433 ft | 0 kts | 147° |
| 2026-04-29 16:41 | 51.51448 | 7.61046 | 433 ft | 2 kts | 146° |
| 2026-04-29 16:41 | 51.51439 | 7.61055 | 433 ft | 1 kts | 145° |
| 2026-04-29 16:41 | 51.51437 | 7.61057 | 433 ft | 0 kts | 145° |
| 2026-04-29 16:44 | 51.51438 | 7.61057 | 433 ft | 0 kts | 144° |